sensor_id;sensor_type;location;lat;lon;timestamp;P1;durP1;ratioP1;P2;durP2;ratioP2
43580;SDS011;29175;51.030;4.606;2022-08-25T00:01:55;7.30;;;4.93;;
43580;SDS011;29175;51.030;4.606;2022-08-25T00:04:28;10.10;;;5.32;;
43580;SDS011;29175;51.030;4.606;2022-08-25T00:06:54;9.57;;;5.47;;
43580;SDS011;29175;51.030;4.606;2022-08-25T00:09:22;12.57;;;5.55;;
43580;SDS011;29175;51.030;4.606;2022-08-25T00:11:51;10.60;;;5.65;;
43580;SDS011;29175;51.030;4.606;2022-08-25T00:14:21;11.85;;;5.70;;
43580;SDS011;29175;51.030;4.606;2022-08-25T00:16:50;9.05;;;5.07;;
43580;SDS011;29175;51.030;4.606;2022-08-25T00:19:19;8.55;;;5.50;;
43580;SDS011;29175;51.030;4.606;2022-08-25T00:21:50;8.98;;;5.30;;
43580;SDS011;29175;51.030;4.606;2022-08-25T00:24:17;10.55;;;5.03;;
43580;SDS011;29175;51.030;4.606;2022-08-25T00:26:45;12.38;;;5.47;;
43580;SDS011;29175;51.030;4.606;2022-08-25T00:29:14;8.65;;;5.47;;
43580;SDS011;29175;51.030;4.606;2022-08-25T00:31:43;11.45;;;6.38;;
43580;SDS011;29175;51.030;4.606;2022-08-25T00:34:14;10.98;;;6.40;;
43580;SDS011;29175;51.030;4.606;2022-08-25T00:36:43;9.15;;;5.40;;
43580;SDS011;29175;51.030;4.606;2022-08-25T00:41:41;12.82;;;6.57;;
43580;SDS011;29175;51.030;4.606;2022-08-25T00:44:10;10.40;;;5.75;;
43580;SDS011;29175;51.030;4.606;2022-08-25T00:46:42;10.20;;;6.10;;
43580;SDS011;29175;51.030;4.606;2022-08-25T00:49:16;14.52;;;6.05;;
43580;SDS011;29175;51.030;4.606;2022-08-25T00:51:58;16.50;;;6.47;;
43580;SDS011;29175;51.030;4.606;2022-08-25T00:54:33;13.75;;;5.93;;
43580;SDS011;29175;51.030;4.606;2022-08-25T00:57:09;9.85;;;5.75;;
43580;SDS011;29175;51.030;4.606;2022-08-25T00:59:41;9.55;;;5.80;;
43580;SDS011;29175;51.030;4.606;2022-08-25T01:02:11;9.40;;;5.93;;
43580;SDS011;29175;51.030;4.606;2022-08-25T01:04:38;10.05;;;5.38;;
43580;SDS011;29175;51.030;4.606;2022-08-25T01:07:04;12.95;;;5.35;;
43580;SDS011;29175;51.030;4.606;2022-08-25T01:09:34;10.95;;;5.95;;
43580;SDS011;29175;51.030;4.606;2022-08-25T01:12:12;7.90;;;5.03;;
43580;SDS011;29175;51.030;4.606;2022-08-25T01:14:45;11.25;;;6.38;;
43580;SDS011;29175;51.030;4.606;2022-08-25T01:17:12;7.95;;;5.07;;
43580;SDS011;29175;51.030;4.606;2022-08-25T01:19:38;11.82;;;6.20;;
43580;SDS011;29175;51.030;4.606;2022-08-25T01:22:03;9.50;;;5.57;;
43580;SDS011;29175;51.030;4.606;2022-08-25T01:24:32;9.35;;;5.43;;
43580;SDS011;29175;51.030;4.606;2022-08-25T01:27:02;12.55;;;5.97;;
43580;SDS011;29175;51.030;4.606;2022-08-25T01:29:30;11.35;;;6.25;;
43580;SDS011;29175;51.030;4.606;2022-08-25T01:31:58;10.63;;;5.82;;
43580;SDS011;29175;51.030;4.606;2022-08-25T01:36:57;11.48;;;6.78;;
43580;SDS011;29175;51.030;4.606;2022-08-25T01:42:08;13.13;;;6.60;;
43580;SDS011;29175;51.030;4.606;2022-08-25T01:44:49;9.90;;;6.35;;
43580;SDS011;29175;51.030;4.606;2022-08-25T01:47:17;9.00;;;6.00;;
43580;SDS011;29175;51.030;4.606;2022-08-25T01:49:44;11.85;;;6.03;;
43580;SDS011;29175;51.030;4.606;2022-08-25T01:54:49;10.45;;;6.20;;
43580;SDS011;29175;51.030;4.606;2022-08-25T01:57:17;12.23;;;6.63;;
43580;SDS011;29175;51.030;4.606;2022-08-25T01:59:45;11.82;;;6.72;;
43580;SDS011;29175;51.030;4.606;2022-08-25T02:02:13;12.15;;;6.15;;
43580;SDS011;29175;51.030;4.606;2022-08-25T02:04:39;10.63;;;6.07;;
43580;SDS011;29175;51.030;4.606;2022-08-25T02:07:06;11.70;;;6.40;;
43580;SDS011;29175;51.030;4.606;2022-08-25T02:09:35;11.32;;;6.78;;
43580;SDS011;29175;51.030;4.606;2022-08-25T02:12:02;10.18;;;6.50;;
43580;SDS011;29175;51.030;4.606;2022-08-25T02:14:35;11.45;;;6.35;;
43580;SDS011;29175;51.030;4.606;2022-08-25T02:17:02;11.90;;;6.30;;
43580;SDS011;29175;51.030;4.606;2022-08-25T02:19:30;10.20;;;5.95;;
43580;SDS011;29175;51.030;4.606;2022-08-25T02:21:56;10.00;;;6.25;;
43580;SDS011;29175;51.030;4.606;2022-08-25T02:24:25;12.18;;;6.18;;
43580;SDS011;29175;51.030;4.606;2022-08-25T02:26:54;9.77;;;5.88;;
43580;SDS011;29175;51.030;4.606;2022-08-25T02:29:21;16.58;;;6.18;;
43580;SDS011;29175;51.030;4.606;2022-08-25T02:31:48;12.32;;;6.28;;
43580;SDS011;29175;51.030;4.606;2022-08-25T02:36:44;12.32;;;5.65;;
43580;SDS011;29175;51.030;4.606;2022-08-25T02:39:10;8.63;;;5.65;;
43580;SDS011;29175;51.030;4.606;2022-08-25T02:41:37;13.02;;;6.72;;
43580;SDS011;29175;51.030;4.606;2022-08-25T02:44:04;18.23;;;6.38;;
43580;SDS011;29175;51.030;4.606;2022-08-25T02:49:00;9.88;;;6.03;;
43580;SDS011;29175;51.030;4.606;2022-08-25T02:51:27;10.90;;;6.40;;
43580;SDS011;29175;51.030;4.606;2022-08-25T02:53:54;11.23;;;6.22;;
43580;SDS011;29175;51.030;4.606;2022-08-25T03:01:19;10.85;;;6.60;;
43580;SDS011;29175;51.030;4.606;2022-08-25T03:03:48;16.40;;;7.03;;
43580;SDS011;29175;51.030;4.606;2022-08-25T03:06:17;10.55;;;6.47;;
43580;SDS011;29175;51.030;4.606;2022-08-25T03:08:47;10.77;;;6.95;;
43580;SDS011;29175;51.030;4.606;2022-08-25T03:11:14;11.48;;;6.40;;
43580;SDS011;29175;51.030;4.606;2022-08-25T03:13:41;14.40;;;6.88;;
43580;SDS011;29175;51.030;4.606;2022-08-25T03:16:07;14.05;;;7.35;;
43580;SDS011;29175;51.030;4.606;2022-08-25T03:18:34;13.02;;;6.85;;
43580;SDS011;29175;51.030;4.606;2022-08-25T03:21:04;13.02;;;7.38;;
43580;SDS011;29175;51.030;4.606;2022-08-25T03:23:32;11.88;;;6.95;;
43580;SDS011;29175;51.030;4.606;2022-08-25T03:26:00;11.68;;;6.68;;
43580;SDS011;29175;51.030;4.606;2022-08-25T03:31:14;14.88;;;8.18;;
43580;SDS011;29175;51.030;4.606;2022-08-25T03:33:41;33.53;;;8.15;;
43580;SDS011;29175;51.030;4.606;2022-08-25T03:36:18;30.50;;;8.65;;
43580;SDS011;29175;51.030;4.606;2022-08-25T03:38:47;39.47;;;9.77;;
43580;SDS011;29175;51.030;4.606;2022-08-25T03:41:17;38.15;;;9.80;;
43580;SDS011;29175;51.030;4.606;2022-08-25T03:43:48;29.17;;;9.00;;
43580;SDS011;29175;51.030;4.606;2022-08-25T03:46:20;25.33;;;8.70;;
43580;SDS011;29175;51.030;4.606;2022-08-25T03:48:50;21.83;;;8.18;;
43580;SDS011;29175;51.030;4.606;2022-08-25T03:51:25;27.30;;;7.68;;
43580;SDS011;29175;51.030;4.606;2022-08-25T03:54:02;18.02;;;7.15;;
43580;SDS011;29175;51.030;4.606;2022-08-25T03:56:30;23.23;;;7.72;;
43580;SDS011;29175;51.030;4.606;2022-08-25T03:58:57;14.65;;;7.05;;
43580;SDS011;29175;51.030;4.606;2022-08-25T04:01:23;17.90;;;6.90;;
43580;SDS011;29175;51.030;4.606;2022-08-25T04:04:00;16.15;;;7.00;;
43580;SDS011;29175;51.030;4.606;2022-08-25T04:08:56;11.15;;;7.13;;
43580;SDS011;29175;51.030;4.606;2022-08-25T04:11:24;12.52;;;6.95;;
43580;SDS011;29175;51.030;4.606;2022-08-25T04:13:55;12.18;;;6.85;;
43580;SDS011;29175;51.030;4.606;2022-08-25T04:16:25;19.77;;;7.05;;
43580;SDS011;29175;51.030;4.606;2022-08-25T04:18:57;14.40;;;7.10;;
43580;SDS011;29175;51.030;4.606;2022-08-25T04:23:53;17.30;;;7.75;;
43580;SDS011;29175;51.030;4.606;2022-08-25T04:26:27;12.57;;;6.90;;
43580;SDS011;29175;51.030;4.606;2022-08-25T04:28:59;11.23;;;6.57;;
43580;SDS011;29175;51.030;4.606;2022-08-25T04:31:30;14.98;;;7.38;;
43580;SDS011;29175;51.030;4.606;2022-08-25T04:34:01;17.05;;;6.97;;
43580;SDS011;29175;51.030;4.606;2022-08-25T04:36:29;13.30;;;7.25;;
43580;SDS011;29175;51.030;4.606;2022-08-25T04:38:58;17.50;;;7.28;;
43580;SDS011;29175;51.030;4.606;2022-08-25T04:46:22;15.40;;;7.85;;
43580;SDS011;29175;51.030;4.606;2022-08-25T04:51:35;13.05;;;6.88;;
43580;SDS011;29175;51.030;4.606;2022-08-25T04:54:07;13.55;;;7.13;;
43580;SDS011;29175;51.030;4.606;2022-08-25T04:56:40;14.75;;;6.70;;
43580;SDS011;29175;51.030;4.606;2022-08-25T04:59:08;17.25;;;6.82;;
43580;SDS011;29175;51.030;4.606;2022-08-25T05:01:36;11.80;;;6.75;;
43580;SDS011;29175;51.030;4.606;2022-08-25T05:04:04;15.45;;;6.90;;
43580;SDS011;29175;51.030;4.606;2022-08-25T05:06:31;14.05;;;6.65;;
43580;SDS011;29175;51.030;4.606;2022-08-25T05:08:58;22.95;;;7.22;;
43580;SDS011;29175;51.030;4.606;2022-08-25T05:11:28;22.38;;;7.50;;
43580;SDS011;29175;51.030;4.606;2022-08-25T05:13:57;13.90;;;6.55;;
43580;SDS011;29175;51.030;4.606;2022-08-25T05:16:26;14.50;;;7.40;;
43580;SDS011;29175;51.030;4.606;2022-08-25T05:21:24;21.10;;;7.05;;
43580;SDS011;29175;51.030;4.606;2022-08-25T05:23:56;28.67;;;7.93;;
43580;SDS011;29175;51.030;4.606;2022-08-25T05:26:30;23.63;;;7.88;;
43580;SDS011;29175;51.030;4.606;2022-08-25T05:29:00;21.70;;;7.90;;
43580;SDS011;29175;51.030;4.606;2022-08-25T05:31:31;18.00;;;7.00;;
43580;SDS011;29175;51.030;4.606;2022-08-25T05:34:02;23.75;;;7.70;;
43580;SDS011;29175;51.030;4.606;2022-08-25T05:36:30;14.32;;;6.32;;
43580;SDS011;29175;51.030;4.606;2022-08-25T05:38:57;14.10;;;6.22;;
43580;SDS011;29175;51.030;4.606;2022-08-25T05:41:27;16.15;;;7.05;;
43580;SDS011;29175;51.030;4.606;2022-08-25T05:43:56;20.45;;;7.57;;
43580;SDS011;29175;51.030;4.606;2022-08-25T05:46:22;15.02;;;6.78;;
43580;SDS011;29175;51.030;4.606;2022-08-25T05:48:49;12.10;;;6.13;;
43580;SDS011;29175;51.030;4.606;2022-08-25T05:51:18;16.90;;;6.10;;
43580;SDS011;29175;51.030;4.606;2022-08-25T05:53:46;17.10;;;6.65;;
43580;SDS011;29175;51.030;4.606;2022-08-25T05:56:16;20.80;;;6.38;;
43580;SDS011;29175;51.030;4.606;2022-08-25T06:01:27;13.25;;;5.82;;
43580;SDS011;29175;51.030;4.606;2022-08-25T06:04:15;15.82;;;5.53;;
43580;SDS011;29175;51.030;4.606;2022-08-25T06:06:43;15.05;;;5.32;;
43580;SDS011;29175;51.030;4.606;2022-08-25T06:09:08;13.18;;;6.18;;
43580;SDS011;29175;51.030;4.606;2022-08-25T06:11:38;13.02;;;6.07;;
43580;SDS011;29175;51.030;4.606;2022-08-25T06:14:11;15.18;;;5.65;;
43580;SDS011;29175;51.030;4.606;2022-08-25T06:16:37;12.07;;;5.78;;
43580;SDS011;29175;51.030;4.606;2022-08-25T06:21:33;20.88;;;6.00;;
43580;SDS011;29175;51.030;4.606;2022-08-25T06:29:00;15.85;;;5.68;;
43580;SDS011;29175;51.030;4.606;2022-08-25T06:31:27;15.60;;;5.60;;
43580;SDS011;29175;51.030;4.606;2022-08-25T06:33:54;16.73;;;5.57;;
43580;SDS011;29175;51.030;4.606;2022-08-25T06:36:20;12.02;;;4.90;;
43580;SDS011;29175;51.030;4.606;2022-08-25T06:38:48;14.93;;;4.95;;
43580;SDS011;29175;51.030;4.606;2022-08-25T06:41:15;11.38;;;4.38;;
43580;SDS011;29175;51.030;4.606;2022-08-25T06:43:42;13.80;;;4.20;;
43580;SDS011;29175;51.030;4.606;2022-08-25T06:48:39;10.93;;;4.50;;
43580;SDS011;29175;51.030;4.606;2022-08-25T06:51:06;7.07;;;3.90;;
43580;SDS011;29175;51.030;4.606;2022-08-25T06:53:36;10.52;;;4.00;;
43580;SDS011;29175;51.030;4.606;2022-08-25T06:56:03;15.68;;;4.47;;
43580;SDS011;29175;51.030;4.606;2022-08-25T06:58:29;11.57;;;4.50;;
43580;SDS011;29175;51.030;4.606;2022-08-25T07:01:09;21.38;;;5.05;;
43580;SDS011;29175;51.030;4.606;2022-08-25T07:03:35;24.77;;;5.18;;
43580;SDS011;29175;51.030;4.606;2022-08-25T07:06:03;15.45;;;4.53;;
43580;SDS011;29175;51.030;4.606;2022-08-25T07:08:29;13.53;;;4.47;;
43580;SDS011;29175;51.030;4.606;2022-08-25T07:11:03;18.58;;;4.28;;
43580;SDS011;29175;51.030;4.606;2022-08-25T07:13:32;17.17;;;4.28;;
43580;SDS011;29175;51.030;4.606;2022-08-25T07:16:02;11.93;;;4.13;;
43580;SDS011;29175;51.030;4.606;2022-08-25T07:18:29;12.48;;;4.47;;
43580;SDS011;29175;51.030;4.606;2022-08-25T07:20:57;10.55;;;4.68;;
43580;SDS011;29175;51.030;4.606;2022-08-25T07:23:24;12.02;;;3.90;;
43580;SDS011;29175;51.030;4.606;2022-08-25T07:25:52;14.20;;;4.20;;
43580;SDS011;29175;51.030;4.606;2022-08-25T07:28:20;15.20;;;4.47;;
43580;SDS011;29175;51.030;4.606;2022-08-25T07:30:48;7.38;;;3.83;;
43580;SDS011;29175;51.030;4.606;2022-08-25T07:35:48;25.92;;;5.82;;
43580;SDS011;29175;51.030;4.606;2022-08-25T07:38:15;14.00;;;4.82;;
43580;SDS011;29175;51.030;4.606;2022-08-25T07:40:42;7.80;;;3.80;;
43580;SDS011;29175;51.030;4.606;2022-08-25T07:45:38;11.82;;;3.88;;
43580;SDS011;29175;51.030;4.606;2022-08-25T07:50:32;12.93;;;4.28;;
43580;SDS011;29175;51.030;4.606;2022-08-25T07:53:00;9.93;;;3.47;;
43580;SDS011;29175;51.030;4.606;2022-08-25T07:55:28;9.90;;;3.55;;
43580;SDS011;29175;51.030;4.606;2022-08-25T07:57:54;7.53;;;3.40;;
43580;SDS011;29175;51.030;4.606;2022-08-25T08:00:21;9.15;;;3.50;;
43580;SDS011;29175;51.030;4.606;2022-08-25T08:02:50;6.97;;;3.22;;
43580;SDS011;29175;51.030;4.606;2022-08-25T08:05:16;11.30;;;3.20;;
43580;SDS011;29175;51.030;4.606;2022-08-25T08:07:41;8.88;;;3.30;;
43580;SDS011;29175;51.030;4.606;2022-08-25T08:10:08;9.10;;;3.20;;
43580;SDS011;29175;51.030;4.606;2022-08-25T08:17:31;6.60;;;3.13;;
43580;SDS011;29175;51.030;4.606;2022-08-25T08:19:57;7.55;;;2.70;;
43580;SDS011;29175;51.030;4.606;2022-08-25T08:22:23;9.77;;;3.00;;
43580;SDS011;29175;51.030;4.606;2022-08-25T08:24:50;12.88;;;3.40;;
43580;SDS011;29175;51.030;4.606;2022-08-25T08:27:17;11.43;;;2.97;;
43580;SDS011;29175;51.030;4.606;2022-08-25T08:32:13;6.25;;;2.60;;
43580;SDS011;29175;51.030;4.606;2022-08-25T08:34:44;9.73;;;2.72;;
43580;SDS011;29175;51.030;4.606;2022-08-25T08:37:13;19.70;;;3.40;;
43580;SDS011;29175;51.030;4.606;2022-08-25T08:39:45;6.43;;;2.53;;
43580;SDS011;29175;51.030;4.606;2022-08-25T08:45:23;8.15;;;2.17;;
43580;SDS011;29175;51.030;4.606;2022-08-25T08:56:07;6.85;;;2.20;;
43580;SDS011;29175;51.030;4.606;2022-08-25T08:58:40;6.70;;;2.58;;
43580;SDS011;29175;51.030;4.606;2022-08-25T09:01:11;7.07;;;2.40;;
43580;SDS011;29175;51.030;4.606;2022-08-25T09:03:43;11.95;;;2.58;;
43580;SDS011;29175;51.030;4.606;2022-08-25T09:09:05;11.57;;;2.10;;
43580;SDS011;29175;51.030;4.606;2022-08-25T09:17:01;7.35;;;2.35;;
43580;SDS011;29175;51.030;4.606;2022-08-25T09:19:40;6.13;;;2.00;;
43580;SDS011;29175;51.030;4.606;2022-08-25T09:25:06;6.22;;;2.22;;
43580;SDS011;29175;51.030;4.606;2022-08-25T09:27:57;6.85;;;2.60;;
43580;SDS011;29175;51.030;4.606;2022-08-25T09:30:43;7.85;;;2.00;;
43580;SDS011;29175;51.030;4.606;2022-08-25T09:33:17;8.95;;;2.17;;
43580;SDS011;29175;51.030;4.606;2022-08-25T09:35:44;8.65;;;1.92;;
43580;SDS011;29175;51.030;4.606;2022-08-25T09:38:12;17.48;;;2.85;;
43580;SDS011;29175;51.030;4.606;2022-08-25T09:40:43;5.45;;;2.10;;
43580;SDS011;29175;51.030;4.606;2022-08-25T09:43:19;7.28;;;2.03;;
43580;SDS011;29175;51.030;4.606;2022-08-25T09:46:10;5.80;;;2.33;;
43580;SDS011;29175;51.030;4.606;2022-08-25T09:48:54;9.15;;;2.10;;
43580;SDS011;29175;51.030;4.606;2022-08-25T09:51:25;5.28;;;2.25;;
43580;SDS011;29175;51.030;4.606;2022-08-25T09:54:03;7.82;;;2.20;;
43580;SDS011;29175;51.030;4.606;2022-08-25T09:56:50;6.95;;;2.40;;
43580;SDS011;29175;51.030;4.606;2022-08-25T09:59:21;9.18;;;2.00;;
43580;SDS011;29175;51.030;4.606;2022-08-25T10:01:56;6.53;;;2.17;;
43580;SDS011;29175;51.030;4.606;2022-08-25T10:04:24;6.32;;;2.20;;
43580;SDS011;29175;51.030;4.606;2022-08-25T10:06:59;6.97;;;2.33;;
43580;SDS011;29175;51.030;4.606;2022-08-25T10:09:31;14.27;;;2.28;;
43580;SDS011;29175;51.030;4.606;2022-08-25T10:12:20;7.28;;;1.90;;
43580;SDS011;29175;51.030;4.606;2022-08-25T10:14:54;9.85;;;2.10;;
43580;SDS011;29175;51.030;4.606;2022-08-25T10:17:30;5.93;;;2.22;;
43580;SDS011;29175;51.030;4.606;2022-08-25T10:22:36;11.70;;;2.15;;
43580;SDS011;29175;51.030;4.606;2022-08-25T10:25:04;5.90;;;1.98;;
43580;SDS011;29175;51.030;4.606;2022-08-25T10:35:56;4.70;;;1.80;;
43580;SDS011;29175;51.030;4.606;2022-08-25T10:43:48;6.88;;;2.00;;
43580;SDS011;29175;51.030;4.606;2022-08-25T10:51:36;7.90;;;1.73;;
43580;SDS011;29175;51.030;4.606;2022-08-25T10:54:17;3.30;;;1.88;;
43580;SDS011;29175;51.030;4.606;2022-08-25T10:57:03;5.20;;;1.80;;
43580;SDS011;29175;51.030;4.606;2022-08-25T11:00:05;4.67;;;1.87;;
43580;SDS011;29175;51.030;4.606;2022-08-25T11:05:56;8.90;;;2.30;;
43580;SDS011;29175;51.030;4.606;2022-08-25T11:13:41;5.30;;;2.50;;
43580;SDS011;29175;51.030;4.606;2022-08-25T11:16:14;3.05;;;1.73;;
43580;SDS011;29175;51.030;4.606;2022-08-25T11:18:47;3.28;;;1.90;;
43580;SDS011;29175;51.030;4.606;2022-08-25T11:21:31;5.53;;;2.28;;
43580;SDS011;29175;51.030;4.606;2022-08-25T11:24:25;5.53;;;1.60;;
43580;SDS011;29175;51.030;4.606;2022-08-25T11:27:04;6.28;;;2.55;;
43580;SDS011;29175;51.030;4.606;2022-08-25T11:29:37;5.30;;;2.08;;
43580;SDS011;29175;51.030;4.606;2022-08-25T11:32:06;5.97;;;2.35;;
43580;SDS011;29175;51.030;4.606;2022-08-25T11:34:34;5.55;;;1.90;;
43580;SDS011;29175;51.030;4.606;2022-08-25T11:37:06;6.25;;;1.90;;
43580;SDS011;29175;51.030;4.606;2022-08-25T11:48:27;5.65;;;2.17;;
43580;SDS011;29175;51.030;4.606;2022-08-25T11:51:10;3.65;;;2.10;;
43580;SDS011;29175;51.030;4.606;2022-08-25T11:54:05;4.90;;;2.13;;
43580;SDS011;29175;51.030;4.606;2022-08-25T11:56:35;6.65;;;2.20;;
43580;SDS011;29175;51.030;4.606;2022-08-25T11:59:02;5.57;;;2.25;;
43580;SDS011;29175;51.030;4.606;2022-08-25T12:04:29;4.75;;;2.15;;
43580;SDS011;29175;51.030;4.606;2022-08-25T12:14:55;5.30;;;2.15;;
43580;SDS011;29175;51.030;4.606;2022-08-25T12:25:54;5.07;;;2.40;;
43580;SDS011;29175;51.030;4.606;2022-08-25T12:28:40;9.20;;;2.58;;
43580;SDS011;29175;51.030;4.606;2022-08-25T12:31:22;8.43;;;2.25;;
43580;SDS011;29175;51.030;4.606;2022-08-25T12:34:20;5.53;;;2.08;;
43580;SDS011;29175;51.030;4.606;2022-08-25T12:36:54;5.65;;;2.10;;
43580;SDS011;29175;51.030;4.606;2022-08-25T12:39:33;13.77;;;2.70;;
43580;SDS011;29175;51.030;4.606;2022-08-25T12:42:05;7.60;;;2.70;;
43580;SDS011;29175;51.030;4.606;2022-08-25T12:44:45;8.35;;;2.40;;
43580;SDS011;29175;51.030;4.606;2022-08-25T12:49:45;7.93;;;2.45;;
43580;SDS011;29175;51.030;4.606;2022-08-25T12:52:17;5.10;;;2.28;;
43580;SDS011;29175;51.030;4.606;2022-08-25T12:54:52;10.23;;;2.53;;
43580;SDS011;29175;51.030;4.606;2022-08-25T13:00:04;6.35;;;2.67;;
43580;SDS011;29175;51.030;4.606;2022-08-25T13:03:11;3.73;;;1.93;;
43580;SDS011;29175;51.030;4.606;2022-08-25T13:08:34;4.68;;;2.33;;
43580;SDS011;29175;51.030;4.606;2022-08-25T13:16:59;6.72;;;2.33;;
43580;SDS011;29175;51.030;4.606;2022-08-25T13:19:27;7.40;;;2.53;;
43580;SDS011;29175;51.030;4.606;2022-08-25T13:27:02;6.40;;;2.40;;
43580;SDS011;29175;51.030;4.606;2022-08-25T13:29:32;4.03;;;2.30;;
43580;SDS011;29175;51.030;4.606;2022-08-25T13:32:02;4.75;;;2.13;;
43580;SDS011;29175;51.030;4.606;2022-08-25T13:34:34;3.38;;;2.00;;
43580;SDS011;29175;51.030;4.606;2022-08-25T13:42:45;6.78;;;2.45;;
43580;SDS011;29175;51.030;4.606;2022-08-25T13:45:18;4.00;;;2.10;;
43580;SDS011;29175;51.030;4.606;2022-08-25T13:47:46;6.93;;;2.03;;
43580;SDS011;29175;51.030;4.606;2022-08-25T13:55:37;8.25;;;2.13;;
43580;SDS011;29175;51.030;4.606;2022-08-25T13:58:20;8.63;;;2.42;;
43580;SDS011;29175;51.030;4.606;2022-08-25T14:01:00;4.03;;;2.28;;
43580;SDS011;29175;51.030;4.606;2022-08-25T14:03:40;6.95;;;2.40;;
43580;SDS011;29175;51.030;4.606;2022-08-25T14:08:44;6.97;;;2.70;;
43580;SDS011;29175;51.030;4.606;2022-08-25T14:11:13;4.90;;;2.22;;
43580;SDS011;29175;51.030;4.606;2022-08-25T14:13:43;8.23;;;2.40;;
43580;SDS011;29175;51.030;4.606;2022-08-25T14:16:20;6.00;;;2.20;;
43580;SDS011;29175;51.030;4.606;2022-08-25T14:18:49;6.35;;;2.13;;
43580;SDS011;29175;51.030;4.606;2022-08-25T14:21:19;4.80;;;2.30;;
43580;SDS011;29175;51.030;4.606;2022-08-25T14:23:54;6.85;;;2.33;;
43580;SDS011;29175;51.030;4.606;2022-08-25T14:26:21;3.15;;;1.83;;
43580;SDS011;29175;51.030;4.606;2022-08-25T14:28:49;3.05;;;2.08;;
43580;SDS011;29175;51.030;4.606;2022-08-25T14:31:28;10.52;;;3.35;;
43580;SDS011;29175;51.030;4.606;2022-08-25T14:34:05;13.85;;;3.97;;
43580;SDS011;29175;51.030;4.606;2022-08-25T14:36:35;14.27;;;3.88;;
43580;SDS011;29175;51.030;4.606;2022-08-25T14:44:01;13.40;;;4.20;;
43580;SDS011;29175;51.030;4.606;2022-08-25T14:46:32;10.52;;;4.18;;
43580;SDS011;29175;51.030;4.606;2022-08-25T14:49:07;11.57;;;4.28;;
43580;SDS011;29175;51.030;4.606;2022-08-25T14:51:37;9.90;;;4.28;;
43580;SDS011;29175;51.030;4.606;2022-08-25T14:54:12;14.45;;;5.07;;
43580;SDS011;29175;51.030;4.606;2022-08-25T14:56:42;14.18;;;5.22;;
43580;SDS011;29175;51.030;4.606;2022-08-25T14:59:11;17.15;;;4.13;;
43580;SDS011;29175;51.030;4.606;2022-08-25T15:01:40;12.52;;;4.72;;
43580;SDS011;29175;51.030;4.606;2022-08-25T15:06:35;7.72;;;4.35;;
43580;SDS011;29175;51.030;4.606;2022-08-25T15:09:03;15.65;;;5.68;;
43580;SDS011;29175;51.030;4.606;2022-08-25T15:11:45;11.35;;;5.25;;
43580;SDS011;29175;51.030;4.606;2022-08-25T15:14:16;12.23;;;4.78;;
43580;SDS011;29175;51.030;4.606;2022-08-25T15:16:51;13.73;;;4.80;;
43580;SDS011;29175;51.030;4.606;2022-08-25T15:21:50;8.32;;;3.58;;
43580;SDS011;29175;51.030;4.606;2022-08-25T15:24:25;6.18;;;3.70;;
43580;SDS011;29175;51.030;4.606;2022-08-25T15:27:01;11.70;;;4.40;;
43580;SDS011;29175;51.030;4.606;2022-08-25T15:29:30;12.27;;;4.63;;
43580;SDS011;29175;51.030;4.606;2022-08-25T15:32:00;10.23;;;4.28;;
43580;SDS011;29175;51.030;4.606;2022-08-25T15:34:28;14.77;;;4.45;;
43580;SDS011;29175;51.030;4.606;2022-08-25T15:36:57;13.93;;;4.18;;
43580;SDS011;29175;51.030;4.606;2022-08-25T15:39:29;10.02;;;4.43;;
43580;SDS011;29175;51.030;4.606;2022-08-25T15:41:55;18.92;;;6.28;;
43580;SDS011;29175;51.030;4.606;2022-08-25T15:44:21;18.33;;;6.57;;
43580;SDS011;29175;51.030;4.606;2022-08-25T15:46:49;14.23;;;5.78;;
43580;SDS011;29175;51.030;4.606;2022-08-25T15:49:16;15.43;;;6.75;;
43580;SDS011;29175;51.030;4.606;2022-08-25T15:51:43;18.98;;;7.68;;
43580;SDS011;29175;51.030;4.606;2022-08-25T15:54:12;14.55;;;7.40;;
43580;SDS011;29175;51.030;4.606;2022-08-25T15:56:43;14.65;;;7.47;;
43580;SDS011;29175;51.030;4.606;2022-08-25T15:59:11;15.18;;;6.47;;
43580;SDS011;29175;51.030;4.606;2022-08-25T16:01:38;18.20;;;7.40;;
43580;SDS011;29175;51.030;4.606;2022-08-25T16:04:07;18.05;;;6.90;;
43580;SDS011;29175;51.030;4.606;2022-08-25T16:06:33;14.77;;;6.80;;
43580;SDS011;29175;51.030;4.606;2022-08-25T16:09:01;17.27;;;6.07;;
43580;SDS011;29175;51.030;4.606;2022-08-25T16:11:32;16.67;;;7.00;;
43580;SDS011;29175;51.030;4.606;2022-08-25T16:14:00;11.63;;;6.75;;
43580;SDS011;29175;51.030;4.606;2022-08-25T16:16:29;13.35;;;5.63;;
43580;SDS011;29175;51.030;4.606;2022-08-25T16:21:23;18.95;;;7.85;;
43580;SDS011;29175;51.030;4.606;2022-08-25T16:23:52;19.20;;;7.35;;
43580;SDS011;29175;51.030;4.606;2022-08-25T16:26:20;13.13;;;6.57;;
43580;SDS011;29175;51.030;4.606;2022-08-25T16:28:46;16.02;;;6.60;;
43580;SDS011;29175;51.030;4.606;2022-08-25T16:31:13;15.52;;;6.35;;
43580;SDS011;29175;51.030;4.606;2022-08-25T16:33:41;24.33;;;8.00;;
43580;SDS011;29175;51.030;4.606;2022-08-25T16:36:09;20.90;;;8.65;;
43580;SDS011;29175;51.030;4.606;2022-08-25T16:38:37;21.33;;;8.00;;
43580;SDS011;29175;51.030;4.606;2022-08-25T16:41:06;26.83;;;9.27;;
43580;SDS011;29175;51.030;4.606;2022-08-25T16:46:02;18.23;;;8.70;;
43580;SDS011;29175;51.030;4.606;2022-08-25T16:48:31;26.35;;;9.43;;
43580;SDS011;29175;51.030;4.606;2022-08-25T16:53:38;22.80;;;11.48;;
43580;SDS011;29175;51.030;4.606;2022-08-25T16:56:24;25.80;;;10.13;;
43580;SDS011;29175;51.030;4.606;2022-08-25T16:58:52;23.45;;;10.57;;
43580;SDS011;29175;51.030;4.606;2022-08-25T17:01:20;22.73;;;11.27;;
43580;SDS011;29175;51.030;4.606;2022-08-25T17:03:54;19.00;;;9.55;;
43580;SDS011;29175;51.030;4.606;2022-08-25T17:06:23;22.90;;;9.95;;
43580;SDS011;29175;51.030;4.606;2022-08-25T17:13:54;15.43;;;9.90;;
43580;SDS011;29175;51.030;4.606;2022-08-25T17:16:24;21.55;;;9.15;;
43580;SDS011;29175;51.030;4.606;2022-08-25T17:18:58;19.67;;;10.20;;
43580;SDS011;29175;51.030;4.606;2022-08-25T17:23:57;23.85;;;11.07;;
43580;SDS011;29175;51.030;4.606;2022-08-25T17:26:25;21.10;;;10.95;;
43580;SDS011;29175;51.030;4.606;2022-08-25T17:28:52;25.42;;;11.75;;
43580;SDS011;29175;51.030;4.606;2022-08-25T17:33:50;32.80;;;13.75;;
43580;SDS011;29175;51.030;4.606;2022-08-25T17:36:17;25.55;;;12.85;;
43580;SDS011;29175;51.030;4.606;2022-08-25T17:38:44;24.70;;;14.23;;
43580;SDS011;29175;51.030;4.606;2022-08-25T17:41:13;33.80;;;14.52;;
43580;SDS011;29175;51.030;4.606;2022-08-25T17:43:40;28.73;;;12.57;;
43580;SDS011;29175;51.030;4.606;2022-08-25T17:46:10;30.40;;;14.30;;
43580;SDS011;29175;51.030;4.606;2022-08-25T17:48:38;30.13;;;15.88;;
43580;SDS011;29175;51.030;4.606;2022-08-25T17:51:06;23.77;;;11.95;;
43580;SDS011;29175;51.030;4.606;2022-08-25T17:53:33;26.35;;;13.40;;
43580;SDS011;29175;51.030;4.606;2022-08-25T17:56:03;26.05;;;12.05;;
43580;SDS011;29175;51.030;4.606;2022-08-25T17:58:31;33.65;;;15.68;;
43580;SDS011;29175;51.030;4.606;2022-08-25T18:01:00;30.83;;;16.08;;
43580;SDS011;29175;51.030;4.606;2022-08-25T18:05:55;32.03;;;14.15;;
43580;SDS011;29175;51.030;4.606;2022-08-25T18:08:23;29.70;;;15.90;;
43580;SDS011;29175;51.030;4.606;2022-08-25T18:10:55;30.63;;;15.93;;
43580;SDS011;29175;51.030;4.606;2022-08-25T18:13:21;33.45;;;15.82;;
43580;SDS011;29175;51.030;4.606;2022-08-25T18:15:47;34.72;;;14.43;;
43580;SDS011;29175;51.030;4.606;2022-08-25T18:20:45;29.13;;;15.33;;
43580;SDS011;29175;51.030;4.606;2022-08-25T18:25:42;36.03;;;16.15;;
43580;SDS011;29175;51.030;4.606;2022-08-25T18:28:09;31.60;;;15.43;;
43580;SDS011;29175;51.030;4.606;2022-08-25T18:30:38;33.55;;;15.20;;
43580;SDS011;29175;51.030;4.606;2022-08-25T18:33:10;30.33;;;14.82;;